Time;durP1;ratioP1;P1;durP2;ratioP2;P2;SDS_P1;SDS_P2;PMS_P1;PMS_P2;Temp;Humidity;BMP_temperature;BMP_pressure;BME280_temperature;BME280_humidity;BME280_pressure;Samples;Min_cycle;Max_cycle;Signal;HPM_P1;HPM_P2
2023/01/02 00:02:10;;;;;;;3.77;3.10;;;;;;;7.33;100.00;97028.66;5000359;28;20637;-52
2023/01/02 00:04:36;;;;;;;4.83;3.10;;;;;;;7.35;100.00;97028.56;5000987;28;20259;-51
2023/01/02 00:07:02;;;;;;;3.83;2.60;;;;;;;7.26;100.00;97024.00;5000446;28;20224;-51
2023/01/02 00:09:29;;;;;;;3.07;2.73;;;;;;;7.21;100.00;97031.38;5000273;28;20204;-51
2023/01/02 00:11:55;;;;;;;3.93;3.30;;;;;;;7.19;100.00;97020.94;5000807;28;20205;-53
2023/01/02 00:14:23;;;;;;;6.43;3.10;;;;;;;7.18;100.00;97027.19;5000486;28;20216;-52
2023/01/02 00:16:50;;;;;;;3.30;3.00;;;;;;;7.18;100.00;97021.91;5000385;28;20297;-51
2023/01/02 00:19:16;;;;;;;3.97;2.90;;;;;;;7.19;100.00;97020.13;4999969;28;20212;-52
2023/01/02 00:21:43;;;;;;;3.50;3.17;;;;;;;7.15;100.00;97031.81;5003157;28;20216;-52
2023/01/02 00:24:09;;;;;;;4.43;4.00;;;;;;;7.12;100.00;97035.50;5003258;28;20209;-53
2023/01/02 00:26:36;;;;;;;4.80;3.70;;;;;;;7.15;100.00;97043.19;5003877;28;20235;-52
2023/01/02 00:29:03;;;;;;;4.80;3.37;;;;;;;7.14;100.00;97040.66;5004218;28;20222;-52
2023/01/02 00:31:30;;;;;;;4.60;3.87;;;;;;;7.13;100.00;97031.09;5003698;28;20207;-52
2023/01/02 00:33:57;;;;;;;5.93;3.67;;;;;;;7.10;100.00;97029.53;5003800;28;20209;-53
2023/01/02 00:36:25;;;;;;;4.40;3.50;;;;;;;7.12;100.00;97026.78;5003576;28;20213;-52
2023/01/02 00:38:54;;;;;;;3.77;3.47;;;;;;;7.03;100.00;97022.19;5004185;28;20632;-53
2023/01/02 00:41:21;;;;;;;5.33;4.10;;;;;;;7.00;100.00;97029.38;5003819;28;20208;-51
2023/01/02 00:43:47;;;;;;;4.80;4.20;;;;;;;7.01;100.00;97019.69;5003897;28;20232;-51
2023/01/02 00:46:14;;;;;;;4.20;3.60;;;;;;;7.01;100.00;97025.75;5003385;28;20235;-52
2023/01/02 00:48:45;;;;;;;5.83;4.60;;;;;;;6.91;100.00;97006.34;5003620;28;20210;-52
2023/01/02 00:51:12;;;;;;;5.33;4.17;;;;;;;6.98;100.00;97015.47;5003279;28;20550;-51
2023/01/02 00:53:38;;;;;;;4.47;4.00;;;;;;;7.00;100.00;97008.34;5003911;28;20205;-53
2023/01/02 00:56:05;;;;;;;6.73;4.60;;;;;;;7.02;100.00;97005.56;5003033;28;20207;-52
2023/01/02 00:58:32;;;;;;;5.53;3.90;;;;;;;6.94;100.00;97005.31;5003501;28;20212;-52
2023/01/02 01:00:58;;;;;;;7.27;4.30;;;;;;;6.90;100.00;97007.31;5003204;28;20204;-51
2023/01/02 01:03:25;;;;;;;4.80;4.23;;;;;;;6.94;100.00;97005.31;5002713;28;20205;-52
2023/01/02 01:05:53;;;;;;;4.97;4.30;;;;;;;6.95;100.00;97004.34;5003472;28;20221;-53
2023/01/02 01:08:19;;;;;;;6.20;4.77;;;;;;;6.86;100.00;97000.63;5003320;28;20217;-52
2023/01/02 01:10:46;;;;;;;5.20;4.70;;;;;;;6.84;100.00;96991.97;5003155;28;20205;-52
2023/01/02 01:13:12;;;;;;;5.40;4.90;;;;;;;6.80;100.00;96992.34;5003912;28;20200;-52
2023/01/02 01:15:39;;;;;;;5.73;5.17;;;;;;;6.76;100.00;96994.34;5003144;28;20197;-52
2023/01/02 01:18:05;;;;;;;8.10;4.77;;;;;;;6.79;100.00;96994.13;5003014;28;20216;-52
2023/01/02 01:20:32;;;;;;;7.17;4.80;;;;;;;6.77;100.00;96997.78;5003319;28;20225;-53
2023/01/02 01:23:00;;;;;;;6.40;4.97;;;;;;;6.79;100.00;97004.63;5003415;28;20216;-51
2023/01/02 01:25:26;;;;;;;9.10;4.90;;;;;;;6.72;100.00;97002.56;5002898;28;20224;-52
2023/01/02 01:27:53;;;;;;;5.87;4.57;;;;;;;6.75;100.00;97008.44;5002981;28;20225;-52
2023/01/02 01:30:19;;;;;;;7.10;4.57;;;;;;;6.82;100.00;97009.66;5003300;28;20637;-52
2023/01/02 01:32:46;;;;;;;6.23;4.87;;;;;;;6.76;100.00;97010.13;5002415;28;20663;-52
2023/01/02 01:35:12;;;;;;;8.00;4.73;;;;;;;6.75;100.00;97003.19;5003154;28;20205;-52
2023/01/02 01:37:39;;;;;;;5.50;5.00;;;;;;;6.69;100.00;96998.38;5002702;28;20636;-51
2023/01/02 01:40:08;;;;;;;7.90;5.07;;;;;;;6.72;100.00;96997.31;5002418;28;20204;-52
2023/01/02 01:42:35;;;;;;;5.07;4.40;;;;;;;6.73;100.00;97005.06;5002329;28;20232;-51
2023/01/02 01:45:02;;;;;;;5.90;5.00;;;;;;;6.73;100.00;97005.06;4994899;28;20244;-52
2023/01/02 01:47:36;;;;;;;7.20;5.00;;;;;;;6.77;100.00;97006.53;4993269;28;20236;-52
2023/01/02 01:50:06;;;;;;;9.57;5.40;;;;;;;6.66;100.00;97009.06;4993572;28;20212;-52
2023/01/02 01:52:35;;;;;;;5.80;5.23;;;;;;;6.69;100.00;96995.75;4993123;28;20205;-51
2023/01/02 01:55:04;;;;;;;7.10;4.80;;;;;;;6.68;100.00;96991.44;4992615;28;20205;-52
2023/01/02 01:57:33;;;;;;;5.07;4.57;;;;;;;6.74;100.00;96993.59;4992944;28;20232;-52
2023/01/02 02:00:00;;;;;;;5.00;4.07;;;;;;;6.80;100.00;96993.16;4992613;28;20652;-52
2023/01/02 02:02:27;;;;;;;5.63;4.90;;;;;;;6.78;100.00;96989.81;4992302;28;20219;-51
2023/01/02 02:04:54;;;;;;;5.50;4.67;;;;;;;6.79;100.00;97002.00;4992997;28;20578;-52
2023/01/02 02:07:20;;;;;;;6.27;4.77;;;;;;;6.72;100.00;97002.56;4996140;28;20229;-52
2023/01/02 02:09:50;;;;;;;6.07;4.50;;;;;;;6.70;100.00;97005.28;5002218;28;20189;-52
2023/01/02 02:12:17;;;;;;;6.30;4.40;;;;;;;6.65;100.00;97004.78;5002832;28;20197;-51
2023/01/02 02:14:45;;;;;;;5.53;4.23;;;;;;;6.69;100.00;97001.00;5001754;28;20208;-51
2023/01/02 02:17:19;;;;;;;5.67;3.70;;;;;;;6.70;100.00;96994.78;5004225;28;20208;-53
2023/01/02 02:20:24;;;;;;;7.90;3.93;;;;;;;6.67;100.00;97000.25;5003999;28;20207;-52
2023/01/02 02:23:26;;;;;;;4.10;3.57;;;;;;;6.69;100.00;96987.00;5003057;28;20228;-52
2023/01/02 02:26:12;;;;;;;5.77;3.30;;;;;;;6.67;100.00;96973.97;4993846;28;20205;-51
2023/01/02 02:29:09;;;;;;;7.43;3.43;;;;;;;6.72;100.00;96982.38;4993658;28;20197;-52
2023/01/02 02:31:43;;;;;;;5.50;3.50;;;;;;;6.66;100.00;96981.97;4992223;28;20197;-53
2023/01/02 02:34:16;;;;;;;3.27;2.97;;;;;;;6.66;100.00;96982.78;4992089;28;20204;-52
2023/01/02 02:36:46;;;;;;;4.77;3.10;;;;;;;6.63;100.00;96972.50;4992976;28;20198;-52
2023/01/02 02:39:19;;;;;;;4.77;3.53;;;;;;;6.64;100.00;96982.09;4992723;28;20209;-52
2023/01/02 02:41:54;;;;;;;4.47;2.90;;;;;;;6.70;100.00;96984.25;4992353;28;20227;-52
2023/01/02 02:44:27;;;;;;;3.90;2.80;;;;;;;6.72;100.00;96974.50;4996361;28;20568;-52
2023/01/02 02:46:58;;;;;;;2.37;2.20;;;;;;;6.74;100.00;96975.22;5001544;28;20683;-51
2023/01/02 02:49:36;;;;;;;4.33;2.60;;;;;;;6.78;100.00;96966.16;5001715;28;20212;-51
2023/01/02 02:52:07;;;;;;;5.37;2.77;;;;;;;6.72;100.00;96963.97;5002113;28;20197;-51
2023/01/02 02:54:38;;;;;;;2.80;2.47;;;;;;;6.67;100.00;96954.72;5002315;28;20196;-51
2023/01/02 02:57:05;;;;;;;2.57;2.23;;;;;;;6.63;100.00;96964.63;5001392;28;20719;-52
2023/01/02 02:59:33;;;;;;;5.57;2.70;;;;;;;6.62;100.00;96960.34;5001822;28;20220;-51
2023/01/02 03:02:02;;;;;;;5.07;2.70;;;;;;;6.69;100.00;96960.72;5001887;28;20243;-52
2023/01/02 03:04:28;;;;;;;5.00;2.80;;;;;;;6.66;100.00;96958.34;5001788;28;20224;-52
2023/01/02 03:07:04;;;;;;;9.40;2.90;;;;;;;6.69;100.00;96969.47;5002914;28;20229;-53
2023/01/02 03:09:35;;;;;;;3.07;2.57;;;;;;;6.65;100.00;96960.13;5003543;28;20287;-52
2023/01/02 03:12:09;;;;;;;4.97;2.43;;;;;;;6.65;100.00;96954.88;5004099;28;20209;-53
2023/01/02 03:14:39;;;;;;;5.30;2.70;;;;;;;6.71;100.00;96958.81;5010041;28;20223;-52
2023/01/02 03:17:11;;;;;;;4.97;2.90;;;;;;;6.72;100.00;96948.22;5011359;28;20198;-52
2023/01/02 03:19:39;;;;;;;4.53;3.40;;;;;;;6.69;100.00;96943.19;5004440;28;20201;-52
2023/01/02 03:22:09;;;;;;;6.87;3.07;;;;;;;6.71;100.00;96945.69;5005752;28;20239;-52
2023/01/02 03:24:37;;;;;;;5.03;3.03;;;;;;;6.65;100.00;96959.28;5005949;28;20201;-52
2023/01/02 03:27:06;;;;;;;4.73;3.63;;;;;;;6.64;100.00;96957.59;5018383;28;20225;-52
2023/01/02 03:29:34;;;;;;;5.70;3.17;;;;;;;6.67;100.00;96954.72;5013502;28;20218;-52
2023/01/02 03:32:02;;;;;;;6.27;3.90;;;;;;;6.71;100.00;96945.69;5022561;28;20204;-53
2023/01/02 03:34:32;;;;;;;5.20;3.77;;;;;;;6.66;100.00;96940.75;5022873;28;20208;-53
2023/01/02 03:37:02;;;;;;;5.67;3.60;;;;;;;6.64;100.00;96939.19;5023165;28;20189;-53
2023/01/02 03:39:32;;;;;;;7.93;3.83;;;;;;;6.58;100.00;96947.53;5023954;28;20201;-53
2023/01/02 03:42:02;;;;;;;5.43;3.93;;;;;;;6.64;100.00;96958.44;5025486;28;20201;-53
2023/01/02 03:44:32;;;;;;;5.23;4.13;;;;;;;6.65;100.00;96956.66;5025388;28;20232;-52
2023/01/02 03:47:03;;;;;;;5.00;4.20;;;;;;;6.71;100.00;96951.78;5028504;28;20227;-53
2023/01/02 03:49:33;;;;;;;6.97;4.23;;;;;;;6.80;100.00;96953.72;5027493;28;20204;-51
2023/01/02 03:51:59;;;;;;;5.93;3.93;;;;;;;6.88;100.00;96940.88;5030139;28;20203;-52
2023/01/02 03:54:26;;;;;;;5.67;3.80;;;;;;;6.90;100.00;96944.22;5033086;28;20181;-52
2023/01/02 03:56:56;;;;;;;4.07;3.67;;;;;;;6.89;100.00;96937.28;5030802;28;20272;-53
2023/01/02 03:59:29;;;;;;;7.13;3.90;;;;;;;6.88;100.00;96929.50;5005442;28;20255;-52
2023/01/02 04:02:00;;;;;;;5.13;4.40;;;;;;;6.86;100.00;96927.00;5004704;28;20208;-53
2023/01/02 04:04:38;;;;;;;4.87;4.00;;;;;;;6.92;100.00;96930.97;5005196;28;20205;-51
2023/01/02 04:07:09;;;;;;;5.13;3.97;;;;;;;6.88;100.00;96930.34;5004344;28;20212;-52
2023/01/02 04:09:38;;;;;;;5.87;4.27;;;;;;;6.90;100.00;96928.47;5003872;28;20207;-52
2023/01/02 04:12:08;;;;;;;4.50;4.00;;;;;;;6.91;100.00;96924.84;5004014;28;20215;-51
2023/01/02 04:14:39;;;;;;;5.73;4.00;;;;;;;6.91;100.00;96930.13;5004757;28;20197;-52
2023/01/02 04:17:07;;;;;;;4.67;4.13;;;;;;;6.89;100.00;96924.16;5004734;28;20209;-51
2023/01/02 04:19:35;;;;;;;4.93;4.10;;;;;;;6.88;100.00;96930.34;5004557;28;20203;-51
2023/01/02 04:22:07;;;;;;;6.80;3.93;;;;;;;6.85;100.00;96930.56;5003767;28;20204;-52
2023/01/02 04:24:38;;;;;;;5.33;3.80;;;;;;;6.83;100.00;96927.25;5003723;28;20217;-52
2023/01/02 04:27:08;;;;;;;5.90;4.47;;;;;;;6.77;100.00;96930.28;5004125;28;20645;-52
2023/01/02 04:29:34;;;;;;;5.73;4.07;;;;;;;6.67;100.00;96924.03;5004017;28;20209;-52
2023/01/02 04:32:04;;;;;;;4.27;3.87;;;;;;;6.72;100.00;96929.81;5004504;28;20205;-52
2023/01/02 04:34:33;;;;;;;3.97;3.57;;;;;;;6.75;100.00;96928.75;5003766;28;20209;-52
2023/01/02 04:36:59;;;;;;;5.27;4.10;;;;;;;6.71;100.00;96933.38;5004178;28;20201;-53
2023/01/02 04:39:28;;;;;;;5.03;3.87;;;;;;;6.71;100.00;96922.88;5003314;28;20220;-52
2023/01/02 04:41:54;;;;;;;4.40;3.60;;;;;;;6.66;100.00;96924.97;5004201;28;20240;-51
2023/01/02 04:44:21;;;;;;;4.40;3.83;;;;;;;6.64;100.00;96932.16;4998246;28;20241;-53
2023/01/02 04:46:47;;;;;;;6.10;3.90;;;;;;;6.63;100.00;96938.34;4994435;28;20213;-52
2023/01/02 04:49:14;;;;;;;3.40;3.10;;;;;;;6.62;100.00;96934.06;4995577;28;20208;-53
2023/01/02 04:51:41;;;;;;;6.13;3.50;;;;;;;6.61;100.00;96935.00;4994994;28;20217;-53
2023/01/02 04:54:10;;;;;;;3.53;3.23;;;;;;;6.66;100.00;96934.69;4994070;28;20236;-53
2023/01/02 04:56:38;;;;;;;5.73;3.50;;;;;;;6.76;100.00;96933.06;4994783;28;20212;-53
2023/01/02 04:59:04;;;;;;;6.30;3.87;;;;;;;6.77;100.00;96937.34;4995155;28;20625;-53
2023/01/02 05:01:30;;;;;;;4.27;3.23;;;;;;;6.81;100.00;96929.13;5004630;28;20216;-53
2023/01/02 05:03:57;;;;;;;6.80;3.87;;;;;;;6.72;100.00;96934.22;5011434;28;20637;-53
2023/01/02 05:06:23;;;;;;;7.40;3.40;;;;;;;6.69;100.00;96940.56;5011242;28;20296;-52
2023/01/02 05:08:50;;;;;;;5.30;3.63;;;;;;;6.67;100.00;96942.44;5014492;28;20239;-61
2023/01/02 05:11:19;;;;;;;4.50;3.60;;;;;;;6.71;100.00;96940.44;5015715;28;20197;-54
2023/01/02 05:13:47;;;;;;;5.47;3.40;;;;;;;6.66;100.00;96940.75;5011941;28;20209;-53
2023/01/02 05:16:13;;;;;;;6.73;3.87;;;;;;;6.72;100.00;96942.94;4999916;28;20197;-52
2023/01/02 05:18:40;;;;;;;3.93;3.47;;;;;;;6.79;100.00;96946.81;4998022;28;20205;-51
2023/01/02 05:23:47;;;;;;;4.90;3.70;;;;;;;6.78;100.00;96950.38;4995269;28;20208;-52
2023/01/02 05:23:54;;;;;;;5.77;3.70;;;;;;;6.74;100.00;96959.44;5005900;28;20197;-51
2023/01/02 05:26:20;;;;;;;4.37;3.60;;;;;;;6.74;100.00;96951.56;5011408;28;20201;-53
2023/01/02 05:28:48;;;;;;;4.50;3.53;;;;;;;6.76;100.00;96941.78;5002880;28;20240;-53
2023/01/02 05:31:15;;;;;;;3.67;3.27;;;;;;;6.80;100.00;96937.13;4997327;28;20213;-52
2023/01/02 05:33:42;;;;;;;5.00;3.60;;;;;;;6.86;100.00;96948.03;4997692;28;20221;-53
2023/01/02 05:36:09;;;;;;;7.17;3.70;;;;;;;6.79;100.00;96946.81;5015555;28;20268;-53
2023/01/02 05:38:36;;;;;;;5.87;3.10;;;;;;;6.76;100.00;96940.94;5008744;28;20609;-52
2023/01/02 05:41:03;;;;;;;3.70;3.40;;;;;;;6.77;100.00;96943.44;5002669;28;20213;-53
2023/01/02 05:43:31;;;;;;;5.40;4.00;;;;;;;6.72;100.00;96942.94;4998719;28;20233;-52
2023/01/02 05:45:59;;;;;;;4.00;3.30;;;;;;;6.74;100.00;96938.41;5004479;28;20209;-52
2023/01/02 05:48:25;;;;;;;7.03;3.30;;;;;;;6.72;100.00;96940.31;5003034;28;20244;-51
2023/01/02 05:50:52;;;;;;;3.93;2.77;;;;;;;6.77;100.00;96947.84;5002677;28;20204;-51
2023/01/02 05:53:19;;;;;;;3.30;3.00;;;;;;;6.82;100.00;96951.84;5003019;28;20542;-52
2023/01/02 05:55:45;;;;;;;4.73;2.93;;;;;;;6.84;100.00;96946.44;5002394;28;20232;-52
2023/01/02 05:58:12;;;;;;;3.70;2.77;;;;;;;6.78;100.00;96950.38;5002294;28;20336;-53
2023/01/02 06:00:38;;;;;;;3.30;2.33;;;;;;;6.76;100.00;96943.56;5002170;28;20215;-52
2023/01/02 06:03:06;;;;;;;4.57;2.73;;;;;;;6.64;100.00;96953.19;5002205;28;20632;-53
2023/01/02 06:05:32;;;;;;;3.27;2.97;;;;;;;6.61;100.00;96950.78;5002089;28;20206;-53
2023/01/02 06:07:59;;;;;;;3.20;2.90;;;;;;;6.71;100.00;96954.41;5002474;28;20221;-52
2023/01/02 06:10:25;;;;;;;2.93;2.67;;;;;;;6.74;100.00;96946.28;5001978;28;20205;-52
2023/01/02 06:12:52;;;;;;;3.77;3.37;;;;;;;6.69;100.00;96958.09;5002945;28;20208;-53
2023/01/02 06:15:18;;;;;;;3.27;2.97;;;;;;;6.73;100.00;96954.31;5001390;28;20204;-51
2023/01/02 06:17:45;;;;;;;5.60;2.77;;;;;;;6.71;100.00;96950.94;5002166;28;20209;-52
2023/01/02 06:20:12;;;;;;;3.23;2.93;;;;;;;6.70;100.00;96963.22;5001990;28;20637;-54
2023/01/02 06:22:39;;;;;;;4.07;3.00;;;;;;;6.68;100.00;96957.25;5002582;28;20196;-53
2023/01/02 06:25:06;;;;;;;3.90;2.90;;;;;;;6.63;100.00;96969.03;5001746;28;20228;-52
2023/01/02 06:27:33;;;;;;;5.27;3.10;;;;;;;6.59;100.00;96960.53;5001632;28;20229;-52
2023/01/02 06:29:59;;;;;;;4.77;3.00;;;;;;;6.62;100.00;96964.75;5001805;28;20212;-53
2023/01/02 06:32:25;;;;;;;4.33;3.07;;;;;;;6.52;100.00;96966.38;5001532;28;20213;-51
2023/01/02 06:34:52;;;;;;;3.30;3.00;;;;;;;6.57;100.00;96965.09;5001649;28;20856;-51
2023/01/02 06:37:22;;;;;;;3.30;3.00;;;;;;;6.56;100.00;96967.81;5000970;28;20257;-52
2023/01/02 06:39:49;;;;;;;5.10;3.00;;;;;;;6.53;100.00;96966.25;5001484;28;20620;-52
2023/01/02 06:42:15;;;;;;;4.10;3.20;;;;;;;6.53;100.00;96970.66;5001819;28;20209;-53
2023/01/02 06:44:42;;;;;;;3.87;3.03;;;;;;;6.41;100.00;96977.66;4994767;28;20237;-52
2023/01/02 06:47:08;;;;;;;3.63;3.20;;;;;;;6.47;100.00;96979.84;4991630;28;20227;-53
2023/01/02 06:49:34;;;;;;;4.17;2.90;;;;;;;6.45;100.00;96979.94;4992795;28;20221;-53
2023/01/02 06:52:01;;;;;;;4.80;3.23;;;;;;;6.51;100.00;96981.28;4992016;28;20213;-53
2023/01/02 06:54:29;;;;;;;3.93;3.10;;;;;;;6.43;100.00;96975.75;4992262;28;20205;-53
2023/01/02 06:56:55;;;;;;;3.63;3.00;;;;;;;6.47;100.00;96975.41;4991531;28;20557;-53
2023/01/02 06:59:22;;;;;;;4.87;3.00;;;;;;;6.48;100.00;96979.69;4990709;28;20275;-52
2023/01/02 07:01:48;;;;;;;3.13;2.77;;;;;;;6.46;100.00;96993.91;4991849;28;20209;-51
2023/01/02 07:04:15;;;;;;;4.57;3.23;;;;;;;6.43;100.00;96988.88;4992017;28;20213;-53
2023/01/02 07:06:42;;;;;;;5.47;3.47;;;;;;;6.40;100.00;96991.72;4992658;28;20205;-53
2023/01/02 07:09:09;;;;;;;2.90;2.70;;;;;;;6.47;100.00;96992.97;4992647;28;20229;-52
2023/01/02 07:11:38;;;;;;;4.07;3.17;;;;;;;6.52;100.00;96990.84;4991863;28;20196;-53
2023/01/02 07:14:04;;;;;;;3.70;3.20;;;;;;;6.49;100.00;96983.19;4991791;28;20209;-52
2023/01/02 07:16:31;;;;;;;4.03;3.50;;;;;;;6.46;100.00;96986.88;4991730;28;20641;-51
2023/01/02 07:18:57;;;;;;;4.03;3.30;;;;;;;6.54;100.00;96993.38;4991878;28;20209;-52
2023/01/02 07:21:24;;;;;;;3.83;3.43;;;;;;;6.54;100.00;96996.84;4991854;28;20618;-53
2023/01/02 07:23:50;;;;;;;3.93;3.37;;;;;;;6.53;100.00;96991.69;4991895;28;20220;-53
2023/01/02 07:26:17;;;;;;;5.40;3.60;;;;;;;6.53;100.00;97005.66;4991945;28;20596;-52
2023/01/02 07:28:46;;;;;;;3.87;3.50;;;;;;;6.59;100.00;97002.59;4992047;28;20221;-53
2023/01/02 07:31:15;;;;;;;7.90;4.00;;;;;;;6.61;100.00;97005.97;4995966;28;20247;-51
2023/01/02 07:33:41;;;;;;;5.33;3.83;;;;;;;6.60;100.00;97009.53;4998586;28;20209;-52
2023/01/02 07:36:10;;;;;;;3.70;3.30;;;;;;;6.61;100.00;97000.69;4998216;28;20209;-51
2023/01/02 07:38:38;;;;;;;8.97;3.50;;;;;;;6.62;100.00;97002.38;4998469;28;20211;-53
2023/01/02 07:41:05;;;;;;;3.97;3.57;;;;;;;6.64;100.00;96999.63;4997615;28;20611;-52
2023/01/02 07:43:31;;;;;;;4.47;3.60;;;;;;;6.63;100.00;97009.31;4993701;28;20233;-52
2023/01/02 07:46:03;;;;;;;4.20;3.10;;;;;;;6.67;100.00;97004.66;4979606;28;20202;-52
2023/01/02 07:48:29;;;;;;;4.87;3.47;;;;;;;6.70;100.00;97021.06;4979157;28;20307;-52
2023/01/02 07:50:59;;;;;;;5.27;3.87;;;;;;;6.73;100.00;97015.56;4978464;28;20291;-51
2023/01/02 07:53:26;;;;;;;6.27;3.50;;;;;;;6.78;100.00;97020.50;4979620;28;20213;-51
2023/01/02 07:55:53;;;;;;;4.07;3.60;;;;;;;6.83;100.00;97027.13;4979259;28;20219;-52
2023/01/02 07:58:20;;;;;;;5.40;3.43;;;;;;;6.79;100.00;97020.41;4979907;28;20270;-53
2023/01/02 08:00:46;;;;;;;4.07;3.60;;;;;;;6.83;100.00;97018.41;4979534;28;20221;-52
2023/01/02 08:03:14;;;;;;;4.63;3.87;;;;;;;6.78;100.00;97029.22;4978517;28;20214;-51
2023/01/02 08:05:40;;;;;;;4.73;3.77;;;;;;;6.77;100.00;97026.69;4978438;28;20210;-51
2023/01/02 08:08:07;;;;;;;4.07;3.30;;;;;;;6.84;100.00;97023.53;4978562;28;20557;-52
2023/01/02 08:10:33;;;;;;;4.80;3.60;;;;;;;6.86;100.00;97037.41;4978134;28;20646;-53
2023/01/02 08:13:00;;;;;;;4.33;3.50;;;;;;;6.88;100.00;97048.66;4978465;28;20209;-51
2023/01/02 08:15:26;;;;;;;5.53;4.10;;;;;;;6.93;100.00;97046.53;4978298;28;20214;-53
2023/01/02 08:17:53;;;;;;;4.57;3.83;;;;;;;7.00;100.00;97050.41;4978289;28;20206;-53
2023/01/02 08:20:21;;;;;;;3.43;3.10;;;;;;;7.01;100.00;97052.06;4978060;28;20198;-53
2023/01/02 08:22:47;;;;;;;5.17;3.20;;;;;;;7.04;100.00;97051.03;4978150;28;20264;-52
2023/01/02 08:25:14;;;;;;;4.07;2.90;;;;;;;7.09;100.00;97037.50;4977629;28;20554;-51
2023/01/02 08:27:40;;;;;;;6.23;3.30;;;;;;;7.15;100.00;97037.94;4978283;28;20208;-52
2023/01/02 08:30:07;;;;;;;4.77;3.27;;;;;;;7.20;100.00;97046.31;4978109;28;20206;-53
2023/01/02 08:32:36;;;;;;;4.03;3.23;;;;;;;7.30;100.00;97036.78;4977551;28;20579;-53
2023/01/02 08:35:02;;;;;;;5.37;3.27;;;;;;;7.34;100.00;97053.19;4977900;28;20208;-52
2023/01/02 08:37:30;;;;;;;3.57;3.10;;;;;;;7.46;100.00;97058.38;4977623;28;21063;-52
2023/01/02 08:39:56;;;;;;;3.97;3.43;;;;;;;7.53;100.00;97052.66;4977757;28;20209;-50
2023/01/02 08:42:23;;;;;;;5.23;3.53;;;;;;;7.61;100.00;97051.16;4976173;28;20209;-51
2023/01/02 08:44:49;;;;;;;4.30;3.90;;;;;;;7.68;100.00;97056.78;4988894;28;20236;-52
2023/01/02 08:47:16;;;;;;;3.90;3.50;;;;;;;7.75;100.00;97066.75;4993896;28;20205;-50
2023/01/02 08:49:43;;;;;;;6.50;3.30;;;;;;;7.81;100.00;97065.44;4994261;28;20236;-54
2023/01/02 08:52:09;;;;;;;6.40;3.20;;;;;;;7.87;100.00;97068.44;4994093;28;20205;-55
2023/01/02 08:54:37;;;;;;;4.20;3.27;;;;;;;7.96;100.00;97073.03;4993871;28;20205;-55
2023/01/02 08:57:04;;;;;;;3.60;3.30;;;;;;;7.99;100.00;97072.78;4994228;28;20199;-54
2023/01/02 08:59:30;;;;;;;3.77;3.10;;;;;;;8.02;100.00;97072.53;4993718;28;20212;-52
2023/01/02 09:01:56;;;;;;;4.53;3.40;;;;;;;8.07;100.00;97082.75;4994171;28;20522;-54
2023/01/02 09:04:23;;;;;;;4.70;3.67;;;;;;;8.13;100.00;97084.91;4994402;28;20209;-53
2023/01/02 09:06:49;;;;;;;5.00;3.67;;;;;;;8.17;100.00;97085.50;4994087;28;20550;-55
2023/01/02 09:09:17;;;;;;;5.73;4.43;;;;;;;8.23;100.00;97085.03;4993481;28;20229;-54
2023/01/02 09:11:48;;;;;;;4.30;3.60;;;;;;;8.23;100.00;97085.03;4993729;28;20869;-54
2023/01/02 09:14:15;;;;;;;6.97;5.00;;;;;;;8.30;100.00;97084.47;4994653;28;20582;-54
2023/01/02 09:16:42;;;;;;;6.17;4.60;;;;;;;8.41;100.00;97089.75;4993441;28;20205;-53
2023/01/02 09:19:08;;;;;;;7.83;4.50;;;;;;;8.45;100.00;97095.63;4994750;28;20201;-52
2023/01/02 09:21:35;;;;;;;6.33;4.90;;;;;;;8.49;100.00;97102.34;4994740;28;20201;-54
2023/01/02 09:24:02;;;;;;;7.20;4.40;;;;;;;8.57;100.00;97099.13;4993048;28;20224;-54
2023/01/02 09:26:29;;;;;;;5.60;4.90;;;;;;;8.66;100.00;97103.66;4993128;28;20231;-54
2023/01/02 09:28:57;;;;;;;9.13;5.03;;;;;;;8.70;100.00;97100.66;4993077;28;20221;-54
2023/01/02 09:31:23;;;;;;;8.43;5.23;;;;;;;8.78;100.00;97108.81;4993662;28;20236;-54
2023/01/02 09:33:50;;;;;;;5.97;5.20;;;;;;;8.86;100.00;97103.75;4993919;28;20201;-55
2023/01/02 09:36:18;;;;;;;8.30;5.13;;;;;;;8.97;100.00;97102.91;4993471;28;20201;-54
2023/01/02 09:38:52;;;;;;;6.90;6.23;;;;;;;9.02;100.00;97105.19;4994149;28;20738;-54
2023/01/02 09:41:27;;;;;;;6.47;5.00;;;;;;;9.16;100.00;97104.94;4993677;28;20201;-53
2023/01/02 09:43:58;;;;;;;7.57;6.03;;;;;;;9.28;100.00;97107.41;4992920;28;20242;-54
2023/01/02 09:46:28;;;;;;;6.73;5.30;;;;;;;9.52;100.00;97101.13;4993662;28;20197;-54
2023/01/02 09:48:54;;;;;;;6.17;5.40;;;;;;;9.67;100.00;97108.59;4993047;28;20218;-55
2023/01/02 09:51:21;;;;;;;7.37;5.40;;;;;;;9.95;100.00;97112.47;4993353;28;20649;-54
2023/01/02 09:53:47;;;;;;;5.67;5.07;;;;;;;10.02;100.00;97118.06;4992583;28;20200;-55
2023/01/02 09:56:21;;;;;;;6.90;5.07;;;;;;;10.15;100.00;97121.38;4993364;28;20197;-53
2023/01/02 09:58:50;;;;;;;8.27;5.17;;;;;;;10.18;100.00;97124.59;4992888;28;20193;-54
2023/01/02 10:01:24;;;;;;;8.50;5.27;;;;;;;10.36;100.00;97133.63;4993183;28;20209;-54
2023/01/02 10:03:56;;;;;;;6.53;5.13;;;;;;;10.51;100.00;97130.66;4993199;28;20220;-54
2023/01/02 10:06:25;;;;;;;5.80;5.20;;;;;;;10.60;100.00;97129.84;4993302;28;20224;-55
2023/01/02 10:08:59;;;;;;;9.17;5.50;;;;;;;10.71;100.00;97127.97;4992292;28;20549;-53
2023/01/02 10:11:42;;;;;;;6.43;5.23;;;;;;;10.87;100.00;97132.81;4992860;28;20208;-57
2023/01/02 10:14:13;;;;;;;5.53;4.47;;;;;;;11.06;100.00;97127.56;4992787;28;20649;-54
2023/01/02 10:16:45;;;;;;;5.57;5.07;;;;;;;11.20;100.00;97126.34;4992568;28;20219;-54
2023/01/02 10:19:16;;;;;;;7.87;5.20;;;;;;;11.24;99.04;97125.94;4992596;28;20643;-54
2023/01/02 10:21:42;;;;;;;7.73;5.10;;;;;;;11.25;100.00;97118.84;4992329;28;20644;-54
2023/01/02 10:24:13;;;;;;;7.60;4.60;;;;;;;11.38;100.00;97119.44;4992870;28;20216;-55
2023/01/02 10:26:44;;;;;;;5.33;4.83;;;;;;;11.33;100.00;97114.56;4992775;28;20193;-55
2023/01/02 10:29:14;;;;;;;5.53;4.87;;;;;;;11.31;100.00;97119.13;4992664;28;20217;-54
2023/01/02 10:31:44;;;;;;;6.93;5.37;;;;;;;11.27;100.00;97120.38;4992757;28;20197;-54
2023/01/02 10:34:15;;;;;;;5.60;4.70;;;;;;;11.26;100.00;97112.59;4991926;28;20216;-52
2023/01/02 10:36:43;;;;;;;5.37;4.63;;;;;;;11.18;100.00;97099.19;4992261;28;20333;-53
2023/01/02 10:39:13;;;;;;;7.30;5.17;;;;;;;11.08;100.00;97101.81;4991853;28;20616;-54
2023/01/02 10:41:40;;;;;;;5.80;4.53;;;;;;;10.98;100.00;97096.47;4992983;28;20209;-54
2023/01/02 10:44:11;;;;;;;5.77;4.77;;;;;;;10.98;100.00;97083.25;4996966;28;20237;-55
2023/01/02 10:46:38;;;;;;;8.87;4.70;;;;;;;10.96;100.00;97090.50;5002773;28;20208;-54
2023/01/02 10:49:08;;;;;;;5.73;5.20;;;;;;;11.00;100.00;97096.34;5001543;28;20228;-53
2023/01/02 10:51:35;;;;;;;5.37;4.80;;;;;;;11.06;100.00;97084.38;5002561;28;20213;-54
2023/01/02 10:54:04;;;;;;;7.53;5.40;;;;;;;11.08;100.00;97085.94;5002691;28;20644;-54
2023/01/02 10:56:32;;;;;;;7.67;5.90;;;;;;;11.10;100.00;97097.22;5002568;28;20200;-54
2023/01/02 10:58:59;;;;;;;5.43;4.90;;;;;;;11.23;100.00;97099.63;5002389;28;20201;-53
2023/01/02 11:01:25;;;;;;;7.30;5.80;;;;;;;11.28;100.00;97094.75;5004913;28;20212;-54
2023/01/02 11:04:11;;;;;;;7.47;5.10;;;;;;;11.21;100.00;97098.91;5012793;28;20214;-54
2023/01/02 11:06:49;;;;;;;7.60;5.97;;;;;;;11.23;100.00;97099.63;5017600;28;20220;-54
2023/01/02 11:09:19;;;;;;;6.80;6.10;;;;;;;11.28;100.00;97107.97;5020747;28;20228;-54
2023/01/02 11:11:49;;;;;;;8.20;6.13;;;;;;;11.26;100.00;97107.28;5018205;28;20210;-55
2023/01/02 11:14:16;;;;;;;9.13;6.27;;;;;;;11.22;100.00;97100.59;5016627;28;20212;-55
2023/01/02 11:16:42;;;;;;;9.13;6.40;;;;;;;11.23;100.00;97099.63;5017585;28;20213;-54
2023/01/02 11:19:18;;;;;;;8.17;6.33;;;;;;;11.25;100.00;97097.66;5002175;28;20200;-54
2023/01/02 11:21:47;;;;;;;10.83;8.53;;;;;;;11.32;100.00;97098.81;5000394;28;20196;-54
2023/01/02 11:24:18;;;;;;;11.00;8.87;;;;;;;11.38;100.00;97101.72;5000914;28;20235;-54
2023/01/02 11:26:46;;;;;;;5.77;4.17;;;;;;;11.54;93.82;97098.56;5002177;28;20208;-55
2023/01/02 11:29:15;;;;;;;4.93;2.73;;;;;;;11.70;87.66;97084.75;5002761;28;20685;-55
2023/01/02 11:31:43;;;;;;;5.47;3.10;;;;;;;11.88;87.97;97105.16;5005440;28;20197;-54
2023/01/02 11:34:19;;;;;;;2.60;1.80;;;;;;;12.08;82.74;97094.56;5007551;28;20200;-55
2023/01/02 11:36:46;;;;;;;7.43;2.37;;;;;;;12.26;74.89;97091.00;5021964;28;20177;-55
2023/01/02 11:39:21;;;;;;;4.63;1.97;;;;;;;12.43;77.05;97090.28;5029913;28;20208;-55